sensor_id;sensor_type;location;lat;lon;timestamp;temperature;humidity
33881;DHT22;20172;47.530;10.256;2023-05-21T00:02:07;14.60;99.90
33881;DHT22;20172;47.530;10.256;2023-05-21T00:04:36;14.60;99.90
33881;DHT22;20172;47.530;10.256;2023-05-21T00:07:02;14.50;99.90
33881;DHT22;20172;47.530;10.256;2023-05-21T00:09:28;14.40;99.90
33881;DHT22;20172;47.530;10.256;2023-05-21T00:11:53;14.40;99.90
33881;DHT22;20172;47.530;10.256;2023-05-21T00:14:19;14.40;99.90
33881;DHT22;20172;47.530;10.256;2023-05-21T00:16:44;14.40;99.90
33881;DHT22;20172;47.530;10.256;2023-05-21T00:19:11;14.40;99.90
33881;DHT22;20172;47.530;10.256;2023-05-21T00:21:37;14.40;99.90
33881;DHT22;20172;47.530;10.256;2023-05-21T00:24:04;14.40;99.90
33881;DHT22;20172;47.530;10.256;2023-05-21T00:26:29;14.50;99.90
33881;DHT22;20172;47.530;10.256;2023-05-21T00:28:55;14.50;99.90
33881;DHT22;20172;47.530;10.256;2023-05-21T00:31:21;14.40;99.90
33881;DHT22;20172;47.530;10.256;2023-05-21T00:33:46;14.40;99.90
33881;DHT22;20172;47.530;10.256;2023-05-21T00:36:12;14.40;99.90
33881;DHT22;20172;47.530;10.256;2023-05-21T00:38:41;14.40;99.90
33881;DHT22;20172;47.530;10.256;2023-05-21T00:41:10;14.30;99.90
33881;DHT22;20172;47.530;10.256;2023-05-21T00:43:36;14.20;99.90
33881;DHT22;20172;47.530;10.256;2023-05-21T00:46:22;14.20;99.90
33881;DHT22;20172;47.530;10.256;2023-05-21T00:48:48;14.10;99.90
33881;DHT22;20172;47.530;10.256;2023-05-21T00:51:15;14.10;99.90
33881;DHT22;20172;47.530;10.256;2023-05-21T00:53:40;14.00;99.90
33881;DHT22;20172;47.530;10.256;2023-05-21T00:56:07;14.00;99.90
33881;DHT22;20172;47.530;10.256;2023-05-21T00:58:32;14.00;99.90
33881;DHT22;20172;47.530;10.256;2023-05-21T01:00:59;14.00;99.90
33881;DHT22;20172;47.530;10.256;2023-05-21T01:03:31;14.00;99.90
33881;DHT22;20172;47.530;10.256;2023-05-21T01:06:06;14.00;99.90
33881;DHT22;20172;47.530;10.256;2023-05-21T01:08:32;13.90;99.90
33881;DHT22;20172;47.530;10.256;2023-05-21T01:10:59;13.90;99.90
33881;DHT22;20172;47.530;10.256;2023-05-21T01:13:25;13.80;99.90
33881;DHT22;20172;47.530;10.256;2023-05-21T01:15:51;13.70;99.90
33881;DHT22;20172;47.530;10.256;2023-05-21T01:18:18;13.70;99.90
33881;DHT22;20172;47.530;10.256;2023-05-21T01:20:44;13.60;99.90
33881;DHT22;20172;47.530;10.256;2023-05-21T01:23:15;13.60;99.90
33881;DHT22;20172;47.530;10.256;2023-05-21T01:25:41;13.50;99.90
33881;DHT22;20172;47.530;10.256;2023-05-21T01:28:07;13.50;99.90
33881;DHT22;20172;47.530;10.256;2023-05-21T01:30:32;13.50;99.90
33881;DHT22;20172;47.530;10.256;2023-05-21T01:33:03;13.50;99.90
33881;DHT22;20172;47.530;10.256;2023-05-21T01:37:57;13.50;99.90
33881;DHT22;20172;47.530;10.256;2023-05-21T01:42:52;13.40;99.90
33881;DHT22;20172;47.530;10.256;2023-05-21T01:45:17;13.50;99.90
33881;DHT22;20172;47.530;10.256;2023-05-21T01:47:45;13.40;99.90
33881;DHT22;20172;47.530;10.256;2023-05-21T01:50:12;13.40;99.90
33881;DHT22;20172;47.530;10.256;2023-05-21T01:52:38;13.40;99.90
33881;DHT22;20172;47.530;10.256;2023-05-21T01:55:03;13.30;99.90
33881;DHT22;20172;47.530;10.256;2023-05-21T01:57:29;13.30;99.90
33881;DHT22;20172;47.530;10.256;2023-05-21T01:59:54;13.20;99.90
33881;DHT22;20172;47.530;10.256;2023-05-21T02:02:21;13.10;99.90
33881;DHT22;20172;47.530;10.256;2023-05-21T02:04:47;13.00;99.90
33881;DHT22;20172;47.530;10.256;2023-05-21T02:07:14;13.00;99.90
33881;DHT22;20172;47.530;10.256;2023-05-21T02:09:40;13.00;99.90
33881;DHT22;20172;47.530;10.256;2023-05-21T02:12:06;13.00;99.90
33881;DHT22;20172;47.530;10.256;2023-05-21T02:14:31;13.00;99.90
33881;DHT22;20172;47.530;10.256;2023-05-21T02:17:00;13.00;99.90
33881;DHT22;20172;47.530;10.256;2023-05-21T02:19:26;13.00;99.90
33881;DHT22;20172;47.530;10.256;2023-05-21T02:21:51;12.90;99.90
33881;DHT22;20172;47.530;10.256;2023-05-21T02:24:17;12.80;99.90
33881;DHT22;20172;47.530;10.256;2023-05-21T02:26:43;12.80;99.90
33881;DHT22;20172;47.530;10.256;2023-05-21T02:29:08;12.70;99.90
33881;DHT22;20172;47.530;10.256;2023-05-21T02:31:34;12.60;99.90
33881;DHT22;20172;47.530;10.256;2023-05-21T02:33:59;12.60;99.90
33881;DHT22;20172;47.530;10.256;2023-05-21T02:36:25;12.60;99.90
33881;DHT22;20172;47.530;10.256;2023-05-21T02:38:53;12.60;99.90
33881;DHT22;20172;47.530;10.256;2023-05-21T02:41:19;12.60;99.90
33881;DHT22;20172;47.530;10.256;2023-05-21T02:43:45;12.60;99.90
33881;DHT22;20172;47.530;10.256;2023-05-21T02:46:10;12.60;99.90
33881;DHT22;20172;47.530;10.256;2023-05-21T02:48:36;12.60;99.90
33881;DHT22;20172;47.530;10.256;2023-05-21T02:51:01;12.70;99.90
33881;DHT22;20172;47.530;10.256;2023-05-21T02:53:27;12.70;99.90
33881;DHT22;20172;47.530;10.256;2023-05-21T02:55:52;12.80;99.90
33881;DHT22;20172;47.530;10.256;2023-05-21T02:58:18;12.70;99.90
33881;DHT22;20172;47.530;10.256;2023-05-21T03:00:45;12.70;99.90
33881;DHT22;20172;47.530;10.256;2023-05-21T03:03:10;12.70;99.90
33881;DHT22;20172;47.530;10.256;2023-05-21T03:05:36;12.70;99.90
33881;DHT22;20172;47.530;10.256;2023-05-21T03:08:01;12.70;99.90
33881;DHT22;20172;47.530;10.256;2023-05-21T03:10:27;12.60;99.90
33881;DHT22;20172;47.530;10.256;2023-05-21T03:12:52;12.60;99.90
33881;DHT22;20172;47.530;10.256;2023-05-21T03:15:19;12.60;99.90
33881;DHT22;20172;47.530;10.256;2023-05-21T03:17:48;12.50;99.90
33881;DHT22;20172;47.530;10.256;2023-05-21T03:20:14;12.50;99.90
33881;DHT22;20172;47.530;10.256;2023-05-21T03:22:43;12.50;99.90
33881;DHT22;20172;47.530;10.256;2023-05-21T03:25:09;12.40;99.90
33881;DHT22;20172;47.530;10.256;2023-05-21T03:27:36;12.30;99.90
33881;DHT22;20172;47.530;10.256;2023-05-21T03:30:02;12.20;99.90
33881;DHT22;20172;47.530;10.256;2023-05-21T03:32:27;12.20;99.90
33881;DHT22;20172;47.530;10.256;2023-05-21T03:34:53;12.20;99.90
33881;DHT22;20172;47.530;10.256;2023-05-21T03:37:18;12.10;99.90
33881;DHT22;20172;47.530;10.256;2023-05-21T03:39:44;12.10;99.90
33881;DHT22;20172;47.530;10.256;2023-05-21T03:42:09;12.10;99.90
33881;DHT22;20172;47.530;10.256;2023-05-21T03:44:35;12.10;99.90
33881;DHT22;20172;47.530;10.256;2023-05-21T03:47:00;12.00;99.90
33881;DHT22;20172;47.530;10.256;2023-05-21T03:49:26;12.00;99.90
33881;DHT22;20172;47.530;10.256;2023-05-21T03:51:51;11.90;99.90
33881;DHT22;20172;47.530;10.256;2023-05-21T03:54:17;11.90;99.90
33881;DHT22;20172;47.530;10.256;2023-05-21T03:56:43;12.00;99.90
33881;DHT22;20172;47.530;10.256;2023-05-21T03:59:08;12.00;99.90
33881;DHT22;20172;47.530;10.256;2023-05-21T04:01:34;12.10;99.90
33881;DHT22;20172;47.530;10.256;2023-05-21T04:04:00;12.10;99.90
33881;DHT22;20172;47.530;10.256;2023-05-21T04:06:26;12.10;99.90
33881;DHT22;20172;47.530;10.256;2023-05-21T04:08:52;12.10;99.90
33881;DHT22;20172;47.530;10.256;2023-05-21T04:11:17;12.10;99.90
33881;DHT22;20172;47.530;10.256;2023-05-21T04:13:43;12.10;99.90
33881;DHT22;20172;47.530;10.256;2023-05-21T04:16:08;12.00;99.90
33881;DHT22;20172;47.530;10.256;2023-05-21T04:18:35;12.00;99.90
33881;DHT22;20172;47.530;10.256;2023-05-21T04:21:00;12.00;99.90
33881;DHT22;20172;47.530;10.256;2023-05-21T04:23:26;12.00;99.90
33881;DHT22;20172;47.530;10.256;2023-05-21T04:25:52;12.10;99.90
33881;DHT22;20172;47.530;10.256;2023-05-21T04:28:18;12.20;99.90
33881;DHT22;20172;47.530;10.256;2023-05-21T04:30:45;12.20;99.90
33881;DHT22;20172;47.530;10.256;2023-05-21T04:33:10;12.20;99.90
33881;DHT22;20172;47.530;10.256;2023-05-21T04:35:36;12.20;99.90
33881;DHT22;20172;47.530;10.256;2023-05-21T04:38:02;12.20;99.90
33881;DHT22;20172;47.530;10.256;2023-05-21T04:40:29;12.20;99.90
33881;DHT22;20172;47.530;10.256;2023-05-21T04:42:55;12.20;99.90
33881;DHT22;20172;47.530;10.256;2023-05-21T04:45:21;12.10;99.90
33881;DHT22;20172;47.530;10.256;2023-05-21T04:47:48;12.20;99.90
33881;DHT22;20172;47.530;10.256;2023-05-21T04:50:14;12.20;99.90
33881;DHT22;20172;47.530;10.256;2023-05-21T04:52:40;12.40;99.90
33881;DHT22;20172;47.530;10.256;2023-05-21T04:55:06;12.40;99.90
33881;DHT22;20172;47.530;10.256;2023-05-21T04:57:32;12.30;99.90
33881;DHT22;20172;47.530;10.256;2023-05-21T04:59:58;12.30;99.90
33881;DHT22;20172;47.530;10.256;2023-05-21T05:02:23;12.40;99.90
33881;DHT22;20172;47.530;10.256;2023-05-21T05:04:49;12.40;99.90
33881;DHT22;20172;47.530;10.256;2023-05-21T05:07:14;12.50;99.90
33881;DHT22;20172;47.530;10.256;2023-05-21T05:09:41;12.60;99.90
33881;DHT22;20172;47.530;10.256;2023-05-21T05:12:06;12.60;99.90
33881;DHT22;20172;47.530;10.256;2023-05-21T05:14:32;12.60;99.90
33881;DHT22;20172;47.530;10.256;2023-05-21T05:16:57;12.60;99.90
33881;DHT22;20172;47.530;10.256;2023-05-21T05:19:26;12.60;99.90
33881;DHT22;20172;47.530;10.256;2023-05-21T05:21:51;12.60;99.90
33881;DHT22;20172;47.530;10.256;2023-05-21T05:24:17;12.70;99.90
33881;DHT22;20172;47.530;10.256;2023-05-21T05:26:43;12.70;99.90
33881;DHT22;20172;47.530;10.256;2023-05-21T05:29:08;12.80;99.90
33881;DHT22;20172;47.530;10.256;2023-05-21T05:31:34;12.90;99.90
33881;DHT22;20172;47.530;10.256;2023-05-21T05:34:00;13.00;99.90
33881;DHT22;20172;47.530;10.256;2023-05-21T05:36:25;13.10;99.90
33881;DHT22;20172;47.530;10.256;2023-05-21T05:38:51;13.20;99.90
33881;DHT22;20172;47.530;10.256;2023-05-21T05:41:16;13.30;99.90
33881;DHT22;20172;47.530;10.256;2023-05-21T05:43:44;13.50;99.90
33881;DHT22;20172;47.530;10.256;2023-05-21T05:46:09;13.60;99.90
33881;DHT22;20172;47.530;10.256;2023-05-21T05:48:35;13.70;99.90
33881;DHT22;20172;47.530;10.256;2023-05-21T05:51:01;13.90;99.90
33881;DHT22;20172;47.530;10.256;2023-05-21T05:53:26;14.00;99.90
33881;DHT22;20172;47.530;10.256;2023-05-21T05:55:52;14.10;99.90
33881;DHT22;20172;47.530;10.256;2023-05-21T05:58:17;14.20;99.90
33881;DHT22;20172;47.530;10.256;2023-05-21T06:00:43;14.40;99.90
33881;DHT22;20172;47.530;10.256;2023-05-21T06:03:08;14.50;99.90
33881;DHT22;20172;47.530;10.256;2023-05-21T06:05:34;14.60;99.90
33881;DHT22;20172;47.530;10.256;2023-05-21T06:07:59;14.70;99.90
33881;DHT22;20172;47.530;10.256;2023-05-21T06:10:25;14.80;99.90
33881;DHT22;20172;47.530;10.256;2023-05-21T06:12:51;14.90;99.90
33881;DHT22;20172;47.530;10.256;2023-05-21T06:15:16;14.90;99.90
33881;DHT22;20172;47.530;10.256;2023-05-21T06:17:43;15.00;99.90
33881;DHT22;20172;47.530;10.256;2023-05-21T06:20:10;15.10;99.90
33881;DHT22;20172;47.530;10.256;2023-05-21T06:22:37;15.20;99.90
33881;DHT22;20172;47.530;10.256;2023-05-21T06:25:03;15.40;99.90
33881;DHT22;20172;47.530;10.256;2023-05-21T06:27:29;15.50;99.90
33881;DHT22;20172;47.530;10.256;2023-05-21T06:29:54;15.70;99.90
33881;DHT22;20172;47.530;10.256;2023-05-21T06:32:21;15.80;99.90
33881;DHT22;20172;47.530;10.256;2023-05-21T06:34:47;15.90;99.90
33881;DHT22;20172;47.530;10.256;2023-05-21T06:37:12;16.10;99.90
33881;DHT22;20172;47.530;10.256;2023-05-21T06:39:38;16.20;99.90
33881;DHT22;20172;47.530;10.256;2023-05-21T06:42:04;16.30;99.90
33881;DHT22;20172;47.530;10.256;2023-05-21T06:44:29;16.40;99.90
33881;DHT22;20172;47.530;10.256;2023-05-21T06:46:55;16.50;99.90
33881;DHT22;20172;47.530;10.256;2023-05-21T06:49:21;16.70;99.90
33881;DHT22;20172;47.530;10.256;2023-05-21T06:51:46;16.80;99.90
33881;DHT22;20172;47.530;10.256;2023-05-21T06:54:12;16.80;99.90
33881;DHT22;20172;47.530;10.256;2023-05-21T06:56:39;16.80;99.90
33881;DHT22;20172;47.530;10.256;2023-05-21T06:59:04;16.90;99.90
33881;DHT22;20172;47.530;10.256;2023-05-21T07:01:30;16.90;99.90
33881;DHT22;20172;47.530;10.256;2023-05-21T07:03:56;17.00;99.90
33881;DHT22;20172;47.530;10.256;2023-05-21T07:06:22;17.20;99.90
33881;DHT22;20172;47.530;10.256;2023-05-21T07:08:48;17.40;99.90
33881;DHT22;20172;47.530;10.256;2023-05-21T07:11:14;17.60;99.90
33881;DHT22;20172;47.530;10.256;2023-05-21T07:13:39;17.70;99.90
33881;DHT22;20172;47.530;10.256;2023-05-21T07:16:05;17.90;99.90
33881;DHT22;20172;47.530;10.256;2023-05-21T07:18:31;18.00;99.90
33881;DHT22;20172;47.530;10.256;2023-05-21T07:20:56;18.10;99.90
33881;DHT22;20172;47.530;10.256;2023-05-21T07:23:22;18.20;99.90
33881;DHT22;20172;47.530;10.256;2023-05-21T07:25:48;18.20;99.90
33881;DHT22;20172;47.530;10.256;2023-05-21T07:28:13;18.20;99.90
33881;DHT22;20172;47.530;10.256;2023-05-21T07:30:39;18.30;99.90
33881;DHT22;20172;47.530;10.256;2023-05-21T07:33:05;18.30;99.90
33881;DHT22;20172;47.530;10.256;2023-05-21T07:35:30;18.40;99.90
33881;DHT22;20172;47.530;10.256;2023-05-21T07:37:56;18.50;99.90
33881;DHT22;20172;47.530;10.256;2023-05-21T07:40:21;18.50;99.90
33881;DHT22;20172;47.530;10.256;2023-05-21T07:42:47;18.60;99.90
33881;DHT22;20172;47.530;10.256;2023-05-21T07:45:12;18.60;99.90
33881;DHT22;20172;47.530;10.256;2023-05-21T07:47:38;18.70;99.90
33881;DHT22;20172;47.530;10.256;2023-05-21T07:50:04;18.80;99.90
33881;DHT22;20172;47.530;10.256;2023-05-21T07:52:29;19.00;99.90
33881;DHT22;20172;47.530;10.256;2023-05-21T07:54:55;19.00;99.90
33881;DHT22;20172;47.530;10.256;2023-05-21T07:57:21;19.20;99.90
33881;DHT22;20172;47.530;10.256;2023-05-21T07:59:47;19.20;99.90
33881;DHT22;20172;47.530;10.256;2023-05-21T08:02:13;19.40;99.90
33881;DHT22;20172;47.530;10.256;2023-05-21T08:04:38;19.50;99.90
33881;DHT22;20172;47.530;10.256;2023-05-21T08:07:04;19.60;99.90
33881;DHT22;20172;47.530;10.256;2023-05-21T08:09:30;19.70;99.90
33881;DHT22;20172;47.530;10.256;2023-05-21T08:11:56;19.80;99.90
33881;DHT22;20172;47.530;10.256;2023-05-21T08:14:22;19.90;99.90
33881;DHT22;20172;47.530;10.256;2023-05-21T08:16:47;19.90;99.90
33881;DHT22;20172;47.530;10.256;2023-05-21T08:19:13;20.00;99.90
33881;DHT22;20172;47.530;10.256;2023-05-21T08:21:38;20.00;99.90
33881;DHT22;20172;47.530;10.256;2023-05-21T08:24:04;20.20;99.90
33881;DHT22;20172;47.530;10.256;2023-05-21T08:26:30;20.30;99.90
33881;DHT22;20172;47.530;10.256;2023-05-21T08:28:55;20.50;99.90
33881;DHT22;20172;47.530;10.256;2023-05-21T08:31:21;20.60;99.90
33881;DHT22;20172;47.530;10.256;2023-05-21T08:33:50;20.80;99.90
33881;DHT22;20172;47.530;10.256;2023-05-21T08:36:16;20.90;99.90
33881;DHT22;20172;47.530;10.256;2023-05-21T08:38:41;20.90;99.90
33881;DHT22;20172;47.530;10.256;2023-05-21T08:41:07;21.00;99.90
33881;DHT22;20172;47.530;10.256;2023-05-21T08:43:34;21.10;99.90
33881;DHT22;20172;47.530;10.256;2023-05-21T08:46:01;21.30;99.90
33881;DHT22;20172;47.530;10.256;2023-05-21T08:48:27;21.30;99.90
33881;DHT22;20172;47.530;10.256;2023-05-21T08:50:55;21.40;99.90
33881;DHT22;20172;47.530;10.256;2023-05-21T08:53:21;21.50;99.90
33881;DHT22;20172;47.530;10.256;2023-05-21T08:55:47;21.60;99.90
33881;DHT22;20172;47.530;10.256;2023-05-21T08:58:14;21.80;99.90
33881;DHT22;20172;47.530;10.256;2023-05-21T09:00:40;21.80;99.90
33881;DHT22;20172;47.530;10.256;2023-05-21T09:03:05;21.90;99.90
33881;DHT22;20172;47.530;10.256;2023-05-21T09:05:34;21.90;99.90
33881;DHT22;20172;47.530;10.256;2023-05-21T09:08:06;21.90;99.90
33881;DHT22;20172;47.530;10.256;2023-05-21T09:10:37;22.00;99.90
33881;DHT22;20172;47.530;10.256;2023-05-21T09:13:03;22.00;99.90
33881;DHT22;20172;47.530;10.256;2023-05-21T09:15:29;22.10;99.90
33881;DHT22;20172;47.530;10.256;2023-05-21T09:17:55;22.20;99.90
33881;DHT22;20172;47.530;10.256;2023-05-21T09:20:25;22.10;99.90
33881;DHT22;20172;47.530;10.256;2023-05-21T09:22:51;22.10;99.90
33881;DHT22;20172;47.530;10.256;2023-05-21T09:25:21;22.20;99.90
33881;DHT22;20172;47.530;10.256;2023-05-21T09:27:47;22.20;99.90
33881;DHT22;20172;47.530;10.256;2023-05-21T09:30:15;22.30;99.90
33881;DHT22;20172;47.530;10.256;2023-05-21T09:32:42;22.40;99.90
33881;DHT22;20172;47.530;10.256;2023-05-21T09:35:08;22.50;99.90
33881;DHT22;20172;47.530;10.256;2023-05-21T09:37:37;22.60;99.90
33881;DHT22;20172;47.530;10.256;2023-05-21T09:42:37;22.80;99.90
33881;DHT22;20172;47.530;10.256;2023-05-21T09:45:03;23.00;99.90
33881;DHT22;20172;47.530;10.256;2023-05-21T09:47:29;23.20;99.90
33881;DHT22;20172;47.530;10.256;2023-05-21T09:49:57;23.40;99.90
33881;DHT22;20172;47.530;10.256;2023-05-21T09:52:23;23.60;99.90
33881;DHT22;20172;47.530;10.256;2023-05-21T09:54:52;23.60;99.90
33881;DHT22;20172;47.530;10.256;2023-05-21T09:57:24;23.70;99.90
33881;DHT22;20172;47.530;10.256;2023-05-21T09:59:50;23.70;99.90
33881;DHT22;20172;47.530;10.256;2023-05-21T10:02:16;23.70;99.90
33881;DHT22;20172;47.530;10.256;2023-05-21T10:04:43;23.70;99.90
33881;DHT22;20172;47.530;10.256;2023-05-21T10:07:12;23.80;99.90
33881;DHT22;20172;47.530;10.256;2023-05-21T10:09:37;23.90;99.90
33881;DHT22;20172;47.530;10.256;2023-05-21T10:12:03;24.00;99.90
33881;DHT22;20172;47.530;10.256;2023-05-21T10:14:29;24.00;99.90
33881;DHT22;20172;47.530;10.256;2023-05-21T10:16:58;24.10;99.90
33881;DHT22;20172;47.530;10.256;2023-05-21T10:19:24;24.20;99.90
33881;DHT22;20172;47.530;10.256;2023-05-21T10:21:50;24.40;99.90
33881;DHT22;20172;47.530;10.256;2023-05-21T10:24:16;24.70;99.90
33881;DHT22;20172;47.530;10.256;2023-05-21T10:26:42;24.80;99.90
33881;DHT22;20172;47.530;10.256;2023-05-21T10:29:08;25.00;99.90
33881;DHT22;20172;47.530;10.256;2023-05-21T10:31:34;25.20;99.90
33881;DHT22;20172;47.530;10.256;2023-05-21T10:34:00;25.30;99.90
33881;DHT22;20172;47.530;10.256;2023-05-21T10:36:28;25.50;99.90
33881;DHT22;20172;47.530;10.256;2023-05-21T10:38:55;25.60;99.90
33881;DHT22;20172;47.530;10.256;2023-05-21T10:41:21;25.80;99.90
33881;DHT22;20172;47.530;10.256;2023-05-21T10:46:39;26.00;99.90
33881;DHT22;20172;47.530;10.256;2023-05-21T10:54:32;26.00;99.90
33881;DHT22;20172;47.530;10.256;2023-05-21T10:57:12;25.90;99.90
33881;DHT22;20172;47.530;10.256;2023-05-21T10:59:42;25.80;99.90
33881;DHT22;20172;47.530;10.256;2023-05-21T11:02:08;25.60;99.90
33881;DHT22;20172;47.530;10.256;2023-05-21T11:04:35;25.50;99.90
33881;DHT22;20172;47.530;10.256;2023-05-21T11:07:04;25.60;99.90
33881;DHT22;20172;47.530;10.256;2023-05-21T11:09:30;25.80;99.90
33881;DHT22;20172;47.530;10.256;2023-05-21T11:11:56;25.90;99.90
33881;DHT22;20172;47.530;10.256;2023-05-21T11:17:01;26.10;99.90
33881;DHT22;20172;47.530;10.256;2023-05-21T11:19:34;26.20;99.90
33881;DHT22;20172;47.530;10.256;2023-05-21T11:22:00;26.30;99.90
33881;DHT22;20172;47.530;10.256;2023-05-21T11:24:25;26.50;99.90
33881;DHT22;20172;47.530;10.256;2023-05-21T11:29:19;27.00;99.70
33881;DHT22;20172;47.530;10.256;2023-05-21T11:31:46;27.20;98.70
33881;DHT22;20172;47.530;10.256;2023-05-21T11:36:47;27.30;97.80
33881;DHT22;20172;47.530;10.256;2023-05-21T11:39:14;27.40;99.10
33881;DHT22;20172;47.530;10.256;2023-05-21T11:42:00;27.40;98.50
33881;DHT22;20172;47.530;10.256;2023-05-21T11:44:45;27.50;98.20
33881;DHT22;20172;47.530;10.256;2023-05-21T11:47:11;27.60;98.90
33881;DHT22;20172;47.530;10.256;2023-05-21T11:49:39;27.90;98.40
33881;DHT22;20172;47.530;10.256;2023-05-21T11:52:05;28.00;97.00
33881;DHT22;20172;47.530;10.256;2023-05-21T11:54:32;28.10;96.10
33881;DHT22;20172;47.530;10.256;2023-05-21T11:57:02;28.10;95.60
33881;DHT22;20172;47.530;10.256;2023-05-21T11:59:30;28.20;95.80
33881;DHT22;20172;47.530;10.256;2023-05-21T12:01:57;28.40;94.80
33881;DHT22;20172;47.530;10.256;2023-05-21T12:04:23;28.50;94.70
33881;DHT22;20172;47.530;10.256;2023-05-21T12:06:49;28.40;94.30
33881;DHT22;20172;47.530;10.256;2023-05-21T12:09:14;28.60;93.50
33881;DHT22;20172;47.530;10.256;2023-05-21T12:11:40;28.50;94.30
33881;DHT22;20172;47.530;10.256;2023-05-21T12:14:09;28.50;94.00
33881;DHT22;20172;47.530;10.256;2023-05-21T12:16:35;28.70;93.40
33881;DHT22;20172;47.530;10.256;2023-05-21T12:19:01;28.80;94.30
33881;DHT22;20172;47.530;10.256;2023-05-21T12:21:27;28.80;93.30
33881;DHT22;20172;47.530;10.256;2023-05-21T12:23:53;28.70;92.70
33881;DHT22;20172;47.530;10.256;2023-05-21T12:26:19;28.70;94.20
33881;DHT22;20172;47.530;10.256;2023-05-21T12:28:46;28.60;94.00
33881;DHT22;20172;47.530;10.256;2023-05-21T12:31:14;28.50;94.50
33881;DHT22;20172;47.530;10.256;2023-05-21T12:33:43;28.60;93.40
33881;DHT22;20172;47.530;10.256;2023-05-21T12:36:08;28.70;93.00
33881;DHT22;20172;47.530;10.256;2023-05-21T12:38:34;28.60;91.80
33881;DHT22;20172;47.530;10.256;2023-05-21T12:41:04;28.80;94.00
33881;DHT22;20172;47.530;10.256;2023-05-21T12:43:31;29.00;91.40
33881;DHT22;20172;47.530;10.256;2023-05-21T12:45:56;29.10;92.50
33881;DHT22;20172;47.530;10.256;2023-05-21T12:48:22;29.30;92.50
33881;DHT22;20172;47.530;10.256;2023-05-21T12:50:47;29.40;91.30
33881;DHT22;20172;47.530;10.256;2023-05-21T12:53:13;29.70;90.50
33881;DHT22;20172;47.530;10.256;2023-05-21T12:55:38;29.90;90.60
33881;DHT22;20172;47.530;10.256;2023-05-21T12:58:04;30.00;87.60
33881;DHT22;20172;47.530;10.256;2023-05-21T13:00:32;30.10;88.00
33881;DHT22;20172;47.530;10.256;2023-05-21T13:02:58;30.20;84.00
33881;DHT22;20172;47.530;10.256;2023-05-21T13:05:28;30.10;84.30
33881;DHT22;20172;47.530;10.256;2023-05-21T13:07:54;30.20;78.90
33881;DHT22;20172;47.530;10.256;2023-05-21T13:10:20;30.00;84.00
33881;DHT22;20172;47.530;10.256;2023-05-21T13:12:45;29.90;81.00
33881;DHT22;20172;47.530;10.256;2023-05-21T13:15:11;29.90;81.70
33881;DHT22;20172;47.530;10.256;2023-05-21T13:17:37;29.90;87.30
33881;DHT22;20172;47.530;10.256;2023-05-21T13:20:09;30.00;86.80
33881;DHT22;20172;47.530;10.256;2023-05-21T13:22:45;29.90;86.50
33881;DHT22;20172;47.530;10.256;2023-05-21T13:25:12;30.00;85.10
33881;DHT22;20172;47.530;10.256;2023-05-21T13:27:40;30.00;84.80
33881;DHT22;20172;47.530;10.256;2023-05-21T13:30:06;30.00;84.60
33881;DHT22;20172;47.530;10.256;2023-05-21T13:32:31;29.90;84.50
33881;DHT22;20172;47.530;10.256;2023-05-21T13:34:57;29.60;85.80
33881;DHT22;20172;47.530;10.256;2023-05-21T13:37:22;29.40;86.40
33881;DHT22;20172;47.530;10.256;2023-05-21T13:39:48;29.10;84.80
33881;DHT22;20172;47.530;10.256;2023-05-21T13:42:13;28.80;85.90
33881;DHT22;20172;47.530;10.256;2023-05-21T13:44:39;28.60;88.10
33881;DHT22;20172;47.530;10.256;2023-05-21T13:47:05;28.30;87.50
33881;DHT22;20172;47.530;10.256;2023-05-21T13:49:31;28.20;89.30
33881;DHT22;20172;47.530;10.256;2023-05-21T13:51:57;28.10;87.80
33881;DHT22;20172;47.530;10.256;2023-05-21T13:54:24;27.90;90.00
33881;DHT22;20172;47.530;10.256;2023-05-21T13:56:50;27.90;90.60
33881;DHT22;20172;47.530;10.256;2023-05-21T13:59:15;27.90;90.80
33881;DHT22;20172;47.530;10.256;2023-05-21T14:01:41;27.80;89.70
33881;DHT22;20172;47.530;10.256;2023-05-21T14:04:08;27.80;89.10
33881;DHT22;20172;47.530;10.256;2023-05-21T14:06:34;27.80;89.90
33881;DHT22;20172;47.530;10.256;2023-05-21T14:09:00;27.80;90.70
33881;DHT22;20172;47.530;10.256;2023-05-21T14:11:30;27.80;90.60
33881;DHT22;20172;47.530;10.256;2023-05-21T14:13:56;27.80;91.40
33881;DHT22;20172;47.530;10.256;2023-05-21T14:16:22;27.90;90.90
33881;DHT22;20172;47.530;10.256;2023-05-21T14:18:49;27.80;90.50
33881;DHT22;20172;47.530;10.256;2023-05-21T14:21:15;27.80;90.40
33881;DHT22;20172;47.530;10.256;2023-05-21T14:23:40;27.80;91.20
33881;DHT22;20172;47.530;10.256;2023-05-21T14:26:06;27.70;90.20
33881;DHT22;20172;47.530;10.256;2023-05-21T14:28:31;27.60;90.50
33881;DHT22;20172;47.530;10.256;2023-05-21T14:30:57;27.50;90.90
33881;DHT22;20172;47.530;10.256;2023-05-21T14:33:22;27.40;90.80
33881;DHT22;20172;47.530;10.256;2023-05-21T14:35:48;27.40;90.30
33881;DHT22;20172;47.530;10.256;2023-05-21T14:38:13;27.30;91.00
33881;DHT22;20172;47.530;10.256;2023-05-21T14:40:39;27.20;90.90
33881;DHT22;20172;47.530;10.256;2023-05-21T14:43:05;27.20;91.70
33881;DHT22;20172;47.530;10.256;2023-05-21T14:45:30;27.10;91.50
33881;DHT22;20172;47.530;10.256;2023-05-21T14:48:02;27.10;91.10
33881;DHT22;20172;47.530;10.256;2023-05-21T14:50:35;27.00;90.80
33881;DHT22;20172;47.530;10.256;2023-05-21T14:53:04;26.90;90.70
33881;DHT22;20172;47.530;10.256;2023-05-21T14:55:29;26.90;91.50
33881;DHT22;20172;47.530;10.256;2023-05-21T14:57:57;26.90;91.30
33881;DHT22;20172;47.530;10.256;2023-05-21T15:00:23;26.80;91.10
33881;DHT22;20172;47.530;10.256;2023-05-21T15:02:48;26.70;91.80
33881;DHT22;20172;47.530;10.256;2023-05-21T15:05:14;26.60;91.70
33881;DHT22;20172;47.530;10.256;2023-05-21T15:07:39;26.50;91.10
33881;DHT22;20172;47.530;10.256;2023-05-21T15:10:05;26.50;90.80
33881;DHT22;20172;47.530;10.256;2023-05-21T15:12:31;26.40;90.70
33881;DHT22;20172;47.530;10.256;2023-05-21T15:14:56;26.40;91.50
33881;DHT22;20172;47.530;10.256;2023-05-21T15:17:22;26.30;91.40
33881;DHT22;20172;47.530;10.256;2023-05-21T15:19:48;26.30;90.60
33881;DHT22;20172;47.530;10.256;2023-05-21T15:22:13;26.20;91.60
33881;DHT22;20172;47.530;10.256;2023-05-21T15:24:39;26.20;91.20
33881;DHT22;20172;47.530;10.256;2023-05-21T15:27:04;26.10;90.00
33881;DHT22;20172;47.530;10.256;2023-05-21T15:29:30;26.00;89.60
33881;DHT22;20172;47.530;10.256;2023-05-21T15:31:55;26.00;91.10
33881;DHT22;20172;47.530;10.256;2023-05-21T15:34:21;25.90;90.90